createdAt,value
2017-02-19T00:00:14.638Z,65.46
2017-02-19T00:01:14.151Z,65.48
2017-02-19T00:02:13.295Z,65.42
2017-02-19T00:03:14.887Z,65.45
2017-02-19T00:04:13.544Z,65.40
2017-02-19T00:05:12.457Z,65.45
2017-02-19T00:06:12.519Z,65.50
2017-02-19T00:07:14.889Z,65.60
2017-02-19T00:08:15.049Z,65.60
2017-02-19T00:09:13.593Z,65.59
2017-02-19T00:10:14.222Z,65.52
2017-02-19T00:11:14.284Z,65.57
2017-02-19T00:12:15.149Z,65.66
2017-02-19T00:13:13.892Z,65.74
2017-02-19T00:14:14.563Z,65.59
2017-02-19T00:15:13.335Z,65.61
2017-02-19T00:16:13.670Z,65.64
2017-02-19T00:17:15.008Z,65.61
2017-02-19T00:18:13.049Z,65.59
2017-02-19T00:19:12.828Z,65.63
2017-02-19T00:20:13.616Z,65.60
2017-02-19T00:21:13.896Z,65.65
2017-02-19T00:22:12.735Z,65.60
2017-02-19T00:23:14.438Z,65.63
2017-02-19T00:24:13.318Z,65.56
2017-02-19T00:25:15.432Z,65.54
2017-02-19T00:26:14.967Z,65.60
2017-02-19T00:27:14.962Z,65.58
2017-02-19T00:28:13.459Z,65.40
2017-02-19T00:29:14.171Z,64.93
2017-02-19T00:30:14.099Z,65.36
2017-02-19T00:31:15.429Z,65.51
2017-02-19T00:32:15.233Z,65.50
2017-02-19T00:33:14.147Z,65.55
2017-02-19T00:34:13.319Z,65.62
2017-02-19T00:35:13.192Z,65.65
2017-02-19T00:36:13.004Z,65.64
2017-02-19T00:37:14.113Z,65.61
2017-02-19T00:38:12.650Z,65.73
2017-02-19T00:39:14.182Z,65.76
2017-02-19T00:40:13.888Z,65.73
2017-02-19T00:41:11.840Z,65.73
2017-02-19T00:42:15.303Z,65.74
2017-02-19T00:43:12.167Z,65.74
2017-02-19T00:44:13.849Z,65.69
2017-02-19T00:45:12.563Z,65.66
2017-02-19T00:46:14.103Z,65.78
2017-02-19T00:47:13.229Z,65.79
2017-02-19T00:48:14.752Z,65.77
2017-02-19T00:49:13.395Z,65.81
2017-02-19T00:50:15.002Z,65.79
2017-02-19T00:51:12.516Z,65.75
2017-02-19T00:52:12.463Z,65.76
2017-02-19T00:53:13.095Z,65.79
2017-02-19T00:54:13.728Z,65.82
2017-02-19T00:55:13.332Z,65.82
2017-02-19T00:56:13.960Z,65.77
2017-02-19T00:57:13.728Z,65.82
2017-02-19T00:58:14.440Z,65.83
2017-02-19T00:59:15.868Z,65.85
2017-02-19T01:00:12.615Z,65.90
2017-02-19T01:01:13.242Z,65.89
2017-02-19T01:02:13.663Z,65.85
2017-02-19T01:03:13.437Z,65.89
2017-02-19T01:04:14.596Z,65.89
2017-02-19T01:05:15.050Z,65.88
2017-02-19T01:06:12.739Z,65.94
2017-02-19T01:07:14.393Z,65.91
2017-02-19T01:08:14.121Z,65.97
2017-02-19T01:09:13.863Z,65.94
2017-02-19T01:10:14.128Z,65.88
2017-02-19T01:11:13.299Z,65.92
2017-02-19T01:12:15.137Z,65.89
2017-02-19T01:13:13.378Z,65.88
2017-02-19T01:14:13.622Z,65.97
2017-02-19T01:15:13.184Z,65.83
2017-02-19T01:16:13.911Z,65.89
2017-02-19T01:17:13.286Z,65.98
2017-02-19T01:18:12.914Z,65.94
2017-02-19T01:19:13.500Z,66.01
2017-02-19T01:20:14.338Z,65.98
2017-02-19T01:21:14.035Z,66.04
2017-02-19T01:22:14.733Z,66.02
2017-02-19T01:23:14.572Z,66.02
2017-02-19T01:24:13.558Z,65.98
2017-02-19T01:25:13.248Z,65.96
2017-02-19T01:26:14.272Z,66.02
2017-02-19T01:27:16.114Z,66.01
2017-02-19T01:28:14.030Z,66.02
2017-02-19T01:29:12.829Z,65.97
2017-02-19T01:30:14.310Z,65.99
2017-02-19T01:31:15.057Z,66.01
2017-02-19T01:32:13.716Z,66.02
2017-02-19T01:33:15.378Z,66.08
2017-02-19T01:34:14.633Z,66.09
2017-02-19T01:35:12.637Z,66.04
2017-02-19T01:36:11.723Z,64.89
2017-02-19T01:37:14.333Z,64.77
2017-02-19T01:38:14.827Z,64.75
2017-02-19T01:39:12.207Z,64.66
2017-02-19T01:40:12.306Z,64.59
2017-02-19T01:41:14.459Z,64.63
2017-02-19T01:42:13.803Z,65.61
2017-02-19T01:43:12.566Z,65.82
2017-02-19T01:44:13.969Z,65.95
2017-02-19T01:45:13.107Z,65.98
2017-02-19T01:46:13.843Z,66.01
2017-02-19T01:47:14.742Z,66.04
2017-02-19T01:48:14.382Z,66.06
2017-02-19T01:49:15.338Z,66.03
2017-02-19T01:50:14.469Z,65.88
2017-02-19T01:51:14.276Z,65.07
2017-02-19T01:52:14.680Z,64.84
2017-02-19T01:53:14.038Z,64.70
2017-02-19T01:54:13.581Z,64.72
2017-02-19T01:55:13.175Z,64.70
2017-02-19T01:56:13.016Z,64.66
2017-02-19T01:57:14.498Z,64.62
2017-02-19T01:58:12.990Z,64.69
2017-02-19T01:59:13.192Z,65.67
2017-02-19T02:00:14.226Z,65.86
2017-02-19T02:01:13.533Z,65.96
2017-02-19T02:02:13.463Z,66.03
2017-02-19T02:03:12.995Z,66.17
2017-02-19T02:04:13.244Z,66.35
2017-02-19T02:05:13.094Z,66.43
2017-02-19T02:06:12.955Z,66.49
2017-02-19T02:07:13.944Z,66.46
2017-02-19T02:08:15.360Z,66.78
2017-02-19T02:09:14.146Z,66.72
2017-02-19T02:10:13.920Z,66.71
2017-02-19T02:11:13.664Z,66.73
2017-02-19T02:12:13.535Z,66.66
2017-02-19T02:13:13.631Z,66.53
2017-02-19T02:14:14.692Z,66.63
2017-02-19T02:15:15.315Z,66.62
2017-02-19T02:16:13.341Z,66.65
2017-02-19T02:17:14.372Z,66.48
2017-02-19T02:18:14.347Z,66.49
2017-02-19T02:19:13.064Z,66.65
2017-02-19T02:20:14.807Z,66.76
2017-02-19T02:21:14.394Z,66.76
2017-02-19T02:22:12.453Z,66.72
2017-02-19T02:23:12.105Z,66.71
2017-02-19T02:24:13.328Z,66.75
2017-02-19T02:25:14.057Z,66.74
2017-02-19T02:26:13.183Z,66.80
2017-02-19T02:27:14.454Z,66.72
2017-02-19T02:28:13.459Z,66.74
2017-02-19T02:29:13.024Z,66.65
2017-02-19T02:30:12.671Z,66.68
2017-02-19T02:31:15.849Z,66.72
2017-02-19T02:32:12.840Z,66.65
2017-02-19T02:33:13.975Z,66.85
2017-02-19T02:34:14.735Z,66.79
2017-02-19T02:35:14.157Z,66.60
2017-02-19T02:36:15.665Z,66.77
2017-02-19T02:37:13.719Z,66.73
2017-02-19T02:38:13.992Z,66.65
2017-02-19T02:39:15.009Z,66.74
2017-02-19T02:40:13.012Z,66.74
2017-02-19T02:41:15.091Z,66.71
2017-02-19T02:42:13.913Z,66.74
2017-02-19T02:43:16.606Z,66.70
2017-02-19T02:44:13.929Z,66.72
2017-02-19T02:45:16.908Z,66.65
2017-02-19T02:46:13.064Z,66.69
2017-02-19T02:47:14.133Z,66.74
2017-02-19T02:48:13.072Z,66.79
2017-02-19T02:49:13.774Z,66.67
2017-02-19T02:50:14.344Z,66.69
2017-02-19T02:51:13.257Z,66.73
2017-02-19T02:52:14.725Z,66.89
2017-02-19T02:53:20.036Z,66.83
2017-02-19T02:54:12.724Z,66.85
2017-02-19T02:55:14.095Z,66.97
2017-02-19T02:56:13.886Z,66.89
2017-02-19T02:57:14.095Z,66.89
2017-02-19T02:58:13.136Z,66.87
2017-02-19T02:59:12.937Z,66.90
2017-02-19T03:00:13.105Z,66.88
2017-02-19T03:01:12.687Z,66.96
2017-02-19T03:02:14.076Z,66.93
2017-02-19T03:03:12.953Z,66.85
2017-02-19T03:04:12.874Z,66.78
2017-02-19T03:05:13.691Z,66.78
2017-02-19T03:06:13.711Z,66.78
2017-02-19T03:07:14.332Z,66.72
2017-02-19T03:08:14.212Z,66.73
2017-02-19T03:09:12.882Z,66.76
2017-02-19T03:10:14.179Z,66.72
2017-02-19T03:11:13.248Z,66.73
2017-02-19T03:12:14.573Z,66.79
2017-02-19T03:13:12.943Z,66.79
2017-02-19T03:14:13.213Z,66.83
2017-02-19T03:15:13.088Z,66.82
2017-02-19T03:16:13.734Z,66.92
2017-02-19T03:17:13.873Z,66.96
2017-02-19T03:18:14.661Z,66.88
2017-02-19T03:19:15.165Z,66.93
2017-02-19T03:20:12.539Z,66.80
2017-02-19T03:21:14.142Z,66.77
2017-02-19T03:22:14.200Z,66.82
2017-02-19T03:23:12.760Z,66.83
2017-02-19T03:24:13.491Z,66.83
2017-02-19T03:25:14.026Z,66.83
2017-02-19T03:26:13.752Z,66.71
2017-02-19T03:27:14.364Z,66.77
2017-02-19T03:28:13.404Z,66.80
2017-02-19T03:29:12.404Z,66.78
2017-02-19T03:30:15.071Z,66.80
2017-02-19T03:31:13.735Z,66.77
2017-02-19T03:32:14.750Z,66.83
2017-02-19T03:33:13.800Z,66.81
2017-02-19T03:34:13.488Z,66.79
2017-02-19T03:35:12.825Z,66.77
2017-02-19T03:36:14.050Z,66.77
2017-02-19T03:37:13.487Z,66.51
2017-02-19T03:38:11.610Z,65.65
2017-02-19T03:39:14.351Z,65.39
2017-02-19T03:40:13.942Z,65.52
2017-02-19T03:41:12.600Z,66.38
2017-02-19T03:42:14.674Z,66.51
2017-02-19T03:43:13.797Z,66.61
2017-02-19T03:44:11.570Z,66.72
2017-02-19T03:45:13.191Z,65.67
2017-02-19T03:46:13.822Z,65.47
2017-02-19T03:47:15.432Z,65.09
2017-02-19T03:48:13.111Z,65.39
2017-02-19T03:49:14.079Z,65.25
2017-02-19T03:50:14.063Z,65.68
2017-02-19T03:51:12.943Z,66.41
2017-02-19T03:52:12.615Z,66.53
2017-02-19T03:53:13.613Z,66.63
2017-02-19T03:54:13.669Z,66.69
2017-02-19T03:55:14.303Z,66.72
2017-02-19T03:56:10.467Z,66.80
2017-02-19T03:57:14.430Z,66.80
2017-02-19T03:58:12.947Z,66.73
2017-02-19T03:59:12.105Z,66.76
2017-02-19T04:00:14.378Z,66.79
2017-02-19T04:01:16.137Z,66.78
2017-02-19T04:02:15.279Z,66.71
2017-02-19T04:03:13.395Z,66.77
2017-02-19T04:04:14.192Z,66.82
2017-02-19T04:05:15.713Z,66.72
2017-02-19T04:06:14.411Z,66.73
2017-02-19T04:07:14.104Z,66.73
2017-02-19T04:08:12.809Z,66.79
2017-02-19T04:09:12.481Z,66.83
2017-02-19T04:10:12.859Z,66.76
2017-02-19T04:11:13.551Z,66.61
2017-02-19T04:12:14.847Z,66.78
2017-02-19T04:13:12.748Z,66.94
2017-02-19T04:14:14.235Z,66.96
2017-02-19T04:15:13.858Z,66.89
2017-02-19T04:16:13.528Z,66.83
2017-02-19T04:17:14.168Z,66.88
2017-02-19T04:18:13.395Z,66.82
2017-02-19T04:19:13.392Z,66.79
2017-02-19T04:20:15.063Z,66.77
2017-02-19T04:21:13.228Z,66.84
2017-02-19T04:22:13.602Z,66.77
2017-02-19T04:23:13.543Z,66.75
2017-02-19T04:24:13.215Z,66.86
2017-02-19T04:25:12.866Z,66.84
2017-02-19T04:26:15.389Z,66.82
2017-02-19T04:27:15.635Z,66.78
2017-02-19T04:28:13.654Z,66.80
2017-02-19T04:29:17.483Z,66.81
2017-02-19T04:30:12.977Z,66.80
2017-02-19T04:31:12.601Z,66.80
2017-02-19T04:32:13.417Z,66.75
2017-02-19T04:33:13.563Z,66.75
2017-02-19T04:34:14.555Z,66.79
2017-02-19T04:35:14.088Z,66.78
2017-02-19T04:36:15.757Z,66.77
2017-02-19T04:37:13.608Z,66.74
2017-02-19T04:38:13.644Z,66.79
2017-02-19T04:39:13.297Z,66.75
2017-02-19T04:40:11.936Z,66.80
2017-02-19T04:41:13.813Z,66.79
2017-02-19T04:42:15.225Z,66.89
2017-02-19T04:43:12.736Z,66.82
2017-02-19T04:44:13.756Z,66.88
2017-02-19T04:45:14.261Z,66.82
2017-02-19T04:46:12.802Z,66.81
2017-02-19T04:47:14.374Z,66.83
2017-02-19T04:48:12.813Z,66.86
2017-02-19T04:49:13.855Z,66.83
2017-02-19T04:50:13.463Z,66.74
2017-02-19T04:51:14.703Z,66.79
2017-02-19T04:52:13.415Z,66.88
2017-02-19T04:53:14.084Z,66.99
2017-02-19T04:54:13.701Z,67.00
2017-02-19T04:55:13.413Z,66.85
2017-02-19T04:56:13.545Z,66.84
2017-02-19T04:57:14.763Z,66.86
2017-02-19T04:58:15.299Z,66.78
2017-02-19T04:59:13.482Z,66.85
2017-02-19T05:00:14.205Z,66.83
2017-02-19T05:01:13.934Z,66.82
2017-02-19T05:02:12.547Z,66.82
2017-02-19T05:03:15.131Z,66.85
2017-02-19T05:04:12.770Z,66.77
2017-02-19T05:05:13.468Z,66.86
2017-02-19T05:06:13.460Z,66.81
2017-02-19T05:07:12.918Z,66.73
2017-02-19T05:08:13.521Z,66.66
2017-02-19T05:09:15.006Z,66.73
2017-02-19T05:10:13.733Z,66.85
2017-02-19T05:11:13.373Z,66.84
2017-02-19T05:12:14.551Z,66.72
2017-02-19T05:13:13.530Z,66.80
2017-02-19T05:14:13.156Z,66.68
2017-02-19T05:15:12.834Z,66.79
2017-02-19T05:16:14.230Z,66.96
2017-02-19T05:17:12.923Z,66.87
2017-02-19T05:18:13.753Z,66.78
2017-02-19T05:19:14.252Z,66.71
2017-02-19T05:20:13.655Z,66.78
2017-02-19T05:21:13.457Z,66.78
2017-02-19T05:22:15.188Z,66.84
2017-02-19T05:23:13.710Z,66.87
2017-02-19T05:24:13.038Z,66.78
2017-02-19T05:25:19.022Z,66.74
2017-02-19T05:26:15.359Z,66.80
2017-02-19T05:27:18.910Z,65.76
2017-02-19T05:28:13.188Z,65.59
2017-02-19T05:29:12.722Z,65.47
2017-02-19T05:30:13.944Z,65.43
2017-02-19T05:31:12.642Z,65.44
2017-02-19T05:32:13.596Z,65.44
2017-02-19T05:33:13.191Z,65.35
2017-02-19T05:34:14.792Z,66.26
2017-02-19T05:35:15.174Z,66.49
2017-02-19T05:36:12.889Z,66.64
2017-02-19T05:37:14.500Z,66.69
2017-02-19T05:38:14.152Z,66.68
2017-02-19T05:39:12.657Z,66.70
2017-02-19T05:40:13.388Z,66.70
2017-02-19T05:41:14.085Z,66.69
2017-02-19T05:42:13.736Z,66.74
2017-02-19T05:43:13.306Z,66.73
2017-02-19T05:44:14.473Z,66.77
2017-02-19T05:45:14.155Z,66.75
2017-02-19T05:46:11.449Z,66.76
2017-02-19T05:47:15.097Z,65.67
2017-02-19T05:48:13.867Z,65.49
2017-02-19T05:49:15.498Z,65.33
2017-02-19T05:50:12.971Z,65.34
2017-02-19T05:51:13.876Z,65.19
2017-02-19T05:52:13.551Z,65.13
2017-02-19T05:53:13.605Z,65.51
2017-02-19T05:54:14.196Z,66.20
2017-02-19T05:55:12.946Z,66.43
2017-02-19T05:56:12.589Z,66.52
2017-02-19T05:57:15.317Z,66.52
2017-02-19T05:58:12.951Z,66.55
2017-02-19T05:59:13.533Z,66.67
2017-02-19T06:00:13.748Z,66.64
2017-02-19T06:01:13.456Z,66.70
2017-02-19T06:02:16.673Z,66.72
2017-02-19T06:03:13.658Z,66.66
2017-02-19T06:04:15.360Z,66.71
2017-02-19T06:05:12.907Z,66.63
2017-02-19T06:06:14.467Z,66.62
2017-02-19T06:07:13.500Z,66.86
2017-02-19T06:08:13.286Z,66.79
2017-02-19T06:09:14.859Z,66.85
2017-02-19T06:10:14.621Z,66.81
2017-02-19T06:11:13.160Z,66.74
2017-02-19T06:12:14.135Z,66.75
2017-02-19T06:13:12.023Z,66.76
2017-02-19T06:14:12.752Z,66.71
2017-02-19T06:15:14.414Z,66.75
2017-02-19T06:16:14.035Z,66.74
2017-02-19T06:17:12.775Z,66.69
2017-02-19T06:18:14.453Z,66.70
2017-02-19T06:19:12.930Z,66.72
2017-02-19T06:20:13.629Z,66.70
2017-02-19T06:21:14.583Z,66.69
2017-02-19T06:22:13.188Z,66.69
2017-02-19T06:23:11.996Z,66.70
2017-02-19T06:24:13.301Z,67.10
2017-02-19T06:25:12.969Z,66.88
2017-02-19T06:26:12.786Z,66.74
2017-02-19T06:27:14.819Z,66.56
2017-02-19T06:28:14.020Z,66.62
2017-02-19T06:29:12.746Z,66.59
2017-02-19T06:30:14.093Z,66.70
2017-02-19T06:31:13.770Z,66.65
2017-02-19T06:32:14.429Z,66.66
2017-02-19T06:33:12.930Z,66.74
2017-02-19T06:34:12.871Z,66.70
2017-02-19T06:35:14.502Z,66.69
2017-02-19T06:36:14.251Z,66.70
2017-02-19T06:37:11.938Z,66.67
2017-02-19T06:38:12.565Z,66.71
2017-02-19T06:39:12.665Z,66.60
2017-02-19T06:40:13.540Z,66.71
2017-02-19T06:41:13.551Z,66.68
2017-02-19T06:42:14.079Z,66.77
2017-02-19T06:43:12.660Z,66.76
2017-02-19T06:44:13.170Z,66.80
2017-02-19T06:45:10.857Z,66.84
2017-02-19T06:46:12.854Z,66.84
2017-02-19T06:47:13.537Z,66.86
2017-02-19T06:48:13.171Z,66.91
2017-02-19T06:49:12.936Z,66.94
2017-02-19T06:50:14.957Z,66.91
2017-02-19T06:51:13.567Z,66.95
2017-02-19T06:52:14.204Z,66.92
2017-02-19T06:53:14.451Z,66.91
2017-02-19T06:54:12.953Z,66.90
2017-02-19T06:55:13.541Z,66.88
2017-02-19T06:56:13.236Z,66.91
2017-02-19T06:57:15.578Z,67.10
2017-02-19T06:58:13.071Z,67.07
2017-02-19T06:59:13.390Z,67.07
2017-02-19T07:00:12.994Z,67.13
2017-02-19T07:01:12.698Z,67.04
2017-02-19T07:02:14.659Z,67.07
2017-02-19T07:03:13.373Z,67.02
2017-02-19T07:04:14.049Z,67.17
2017-02-19T07:05:14.604Z,67.06
2017-02-19T07:06:13.348Z,67.14
2017-02-19T07:07:13.473Z,67.09
2017-02-19T07:08:15.718Z,67.08
2017-02-19T07:09:13.358Z,67.11
2017-02-19T07:10:14.027Z,67.04
2017-02-19T07:11:12.108Z,66.99
2017-02-19T07:12:13.453Z,67.01
2017-02-19T07:13:14.118Z,67.06
2017-02-19T07:14:12.097Z,67.08
2017-02-19T07:15:13.152Z,67.16
2017-02-19T07:16:14.729Z,67.14
2017-02-19T07:17:14.394Z,67.22
2017-02-19T07:18:13.033Z,67.24
2017-02-19T07:19:13.733Z,67.20
2017-02-19T07:20:14.332Z,67.37
2017-02-19T07:21:12.858Z,67.32
2017-02-19T07:22:14.521Z,67.32
2017-02-19T07:23:14.929Z,67.30
2017-02-19T07:24:14.116Z,67.31
2017-02-19T07:25:12.774Z,67.25
2017-02-19T07:26:13.416Z,67.27
2017-02-19T07:27:13.644Z,67.34
2017-02-19T07:28:12.686Z,67.33
2017-02-19T07:29:14.966Z,67.28
2017-02-19T07:30:13.046Z,67.32
2017-02-19T07:31:12.551Z,67.30
2017-02-19T07:32:13.412Z,67.20
2017-02-19T07:33:12.408Z,67.22
2017-02-19T07:34:13.634Z,67.21
2017-02-19T07:35:13.628Z,67.19
2017-02-19T07:36:13.268Z,67.22
2017-02-19T07:37:12.835Z,67.26
2017-02-19T07:38:13.850Z,67.26
2017-02-19T07:39:13.522Z,67.40
2017-02-19T07:40:14.167Z,67.46
2017-02-19T07:41:12.818Z,67.55
2017-02-19T07:42:14.297Z,67.54
2017-02-19T07:43:12.846Z,67.58
2017-02-19T07:44:13.773Z,67.66
2017-02-19T07:45:13.353Z,67.76
2017-02-19T07:46:13.098Z,67.82
2017-02-19T07:47:13.905Z,67.87
2017-02-19T07:48:14.861Z,67.81
2017-02-19T07:49:13.405Z,67.78
2017-02-19T07:50:12.953Z,67.89
2017-02-19T07:51:13.694Z,67.81
2017-02-19T07:52:15.334Z,67.90
2017-02-19T07:53:14.619Z,67.89
2017-02-19T07:54:14.023Z,67.58
2017-02-19T07:55:12.917Z,67.72
2017-02-19T07:56:12.703Z,67.81
2017-02-19T07:57:15.471Z,67.79
2017-02-19T07:58:14.304Z,67.87
2017-02-19T07:59:12.822Z,67.88
2017-02-19T08:00:14.928Z,67.80
2017-02-19T08:01:13.503Z,67.58
2017-02-19T08:02:13.055Z,67.83
2017-02-19T08:03:11.252Z,67.68
2017-02-19T08:04:13.788Z,67.27
2017-02-19T08:05:13.323Z,68.12
2017-02-19T08:06:12.943Z,68.32
2017-02-19T08:07:14.689Z,68.35
2017-02-19T08:08:13.580Z,68.53
2017-02-19T08:09:13.139Z,67.86
2017-02-19T08:10:13.186Z,43.67
2017-02-19T08:11:14.397Z,41.75
2017-02-19T08:12:14.128Z,41.43
2017-02-19T08:13:14.254Z,42.67
2017-02-19T08:14:13.170Z,41.92
2017-02-19T08:15:12.744Z,42.81
2017-02-19T08:16:13.328Z,42.83
2017-02-19T08:17:13.018Z,43.40
2017-02-19T08:18:13.885Z,43.50
2017-02-19T08:19:14.578Z,43.16
2017-02-19T08:20:14.086Z,43.34
2017-02-19T08:21:12.709Z,43.64
2017-02-19T08:22:13.401Z,43.66
2017-02-19T08:23:14.095Z,44.64
2017-02-19T08:24:13.958Z,50.01
2017-02-19T08:25:12.944Z,54.05
2017-02-19T08:26:13.875Z,54.15
2017-02-19T08:27:12.697Z,57.99
2017-02-19T08:28:13.682Z,58.08
2017-02-19T08:29:13.236Z,60.17
2017-02-19T08:30:15.261Z,59.73
2017-02-19T08:31:13.889Z,59.34
2017-02-19T08:32:14.154Z,58.85
2017-02-19T08:33:12.866Z,58.76
2017-02-19T08:34:13.956Z,58.56
2017-02-19T08:35:12.678Z,58.40
2017-02-19T08:36:13.223Z,58.25
2017-02-19T08:37:13.817Z,58.14
2017-02-19T08:38:14.373Z,58.01
2017-02-19T08:39:13.221Z,57.77
2017-02-19T08:40:14.938Z,57.75
2017-02-19T08:41:13.926Z,57.89
2017-02-19T08:42:14.231Z,58.05
2017-02-19T08:43:13.298Z,57.93
2017-02-19T08:44:14.361Z,57.96
2017-02-19T08:45:14.209Z,57.95
2017-02-19T08:46:12.871Z,57.86
2017-02-19T08:47:13.536Z,57.94
2017-02-19T08:48:13.342Z,57.74
2017-02-19T08:49:13.244Z,57.74
2017-02-19T08:50:13.229Z,57.74
2017-02-19T08:51:12.948Z,57.65
2017-02-19T08:52:13.707Z,57.74
2017-02-19T08:53:17.903Z,57.71
2017-02-19T08:54:13.420Z,57.65
2017-02-19T08:55:14.624Z,57.78
2017-02-19T08:56:13.319Z,57.86
2017-02-19T08:57:13.223Z,57.93
2017-02-19T08:58:14.051Z,57.90
2017-02-19T08:59:13.753Z,58.06
2017-02-19T09:00:13.304Z,58.14
2017-02-19T09:01:12.909Z,58.18
2017-02-19T09:02:14.596Z,58.12
2017-02-19T09:03:14.118Z,57.67
2017-02-19T09:04:14.881Z,58.14
2017-02-19T09:05:14.439Z,57.77
2017-02-19T09:06:14.939Z,58.26
2017-02-19T09:07:12.723Z,58.29
2017-02-19T09:08:13.319Z,58.29
2017-02-19T09:09:14.124Z,58.55
2017-02-19T09:10:12.688Z,58.68
2017-02-19T09:11:13.268Z,58.75
2017-02-19T09:12:15.903Z,58.86
2017-02-19T09:13:15.224Z,59.19
2017-02-19T09:14:13.828Z,59.33
2017-02-19T09:15:13.594Z,59.55
2017-02-19T09:16:14.108Z,59.71
2017-02-19T09:17:12.238Z,59.70
2017-02-19T09:18:13.792Z,58.77
2017-02-19T09:19:13.672Z,58.84
2017-02-19T09:20:14.261Z,58.89
2017-02-19T09:21:13.888Z,59.80
2017-02-19T09:22:14.532Z,59.82
2017-02-19T09:23:14.099Z,59.96
2017-02-19T09:24:13.646Z,60.02
2017-02-19T09:25:14.200Z,60.11
2017-02-19T09:26:13.762Z,60.31
2017-02-19T09:27:15.147Z,60.35
2017-02-19T09:28:12.892Z,48.62
2017-02-19T09:29:13.558Z,44.78
2017-02-19T09:30:13.149Z,42.03
2017-02-19T09:31:14.863Z,46.86
2017-02-19T09:32:12.746Z,49.35
2017-02-19T09:33:13.387Z,55.21
2017-02-19T09:34:13.386Z,55.42
2017-02-19T09:35:14.089Z,55.29
2017-02-19T09:36:14.159Z,56.61
2017-02-19T09:37:13.298Z,56.55
2017-02-19T09:38:13.274Z,56.95
2017-02-19T09:39:12.961Z,56.97
2017-02-19T09:40:13.095Z,56.94
2017-02-19T09:41:13.066Z,57.05
2017-02-19T09:42:14.405Z,57.04
2017-02-19T09:43:13.085Z,57.20
2017-02-19T09:44:12.720Z,57.34
2017-02-19T09:45:12.860Z,57.37
2017-02-19T09:46:15.504Z,57.39
2017-02-19T09:47:14.094Z,57.45
2017-02-19T09:48:19.734Z,57.45
2017-02-19T09:49:13.412Z,57.38
2017-02-19T09:50:15.123Z,57.47
2017-02-19T09:51:13.320Z,57.46
2017-02-19T09:52:12.223Z,57.41
2017-02-19T09:53:13.767Z,57.47
2017-02-19T09:54:13.670Z,57.55
2017-02-19T09:55:14.281Z,57.64
2017-02-19T09:56:13.595Z,57.65
2017-02-19T09:57:15.023Z,57.74
2017-02-19T09:58:14.256Z,57.85
2017-02-19T09:59:13.921Z,58.03
2017-02-19T10:00:13.433Z,58.09
2017-02-19T10:01:13.150Z,58.45
2017-02-19T10:02:12.827Z,58.55
2017-02-19T10:03:14.469Z,58.60
2017-02-19T10:04:13.426Z,58.64
2017-02-19T10:05:12.933Z,58.61
2017-02-19T10:06:14.996Z,58.70
2017-02-19T10:07:13.586Z,58.87
2017-02-19T10:08:13.332Z,58.86
2017-02-19T10:09:13.035Z,58.95
2017-02-19T10:10:12.157Z,58.98
2017-02-19T10:11:13.822Z,59.06
2017-02-19T10:12:13.749Z,59.11
2017-02-19T10:13:14.419Z,59.18
2017-02-19T10:14:14.061Z,59.35
2017-02-19T10:15:12.651Z,59.76
2017-02-19T10:16:15.044Z,59.64
2017-02-19T10:17:12.800Z,59.64
2017-02-19T10:18:14.739Z,59.72
2017-02-19T10:19:13.469Z,59.71
2017-02-19T10:20:15.521Z,59.72
2017-02-19T10:21:15.067Z,59.77
2017-02-19T10:22:13.604Z,59.76
2017-02-19T10:23:14.111Z,59.77
2017-02-19T10:24:12.636Z,59.85
2017-02-19T10:25:14.158Z,59.92
2017-02-19T10:26:12.965Z,59.88
2017-02-19T10:27:13.892Z,60.00
2017-02-19T10:28:12.743Z,60.02
2017-02-19T10:29:13.408Z,60.06
2017-02-19T10:30:13.063Z,60.10
2017-02-19T10:31:12.625Z,60.08
2017-02-19T10:32:13.538Z,60.20
2017-02-19T10:33:13.182Z,60.28
2017-02-19T10:34:13.572Z,60.24
2017-02-19T10:35:14.328Z,60.28
2017-02-19T10:36:11.985Z,60.29
2017-02-19T10:37:14.588Z,60.36
2017-02-19T10:38:16.239Z,60.35
2017-02-19T10:39:12.879Z,60.39
2017-02-19T10:40:13.469Z,60.44
2017-02-19T10:41:13.153Z,60.47
2017-02-19T10:42:11.445Z,60.49
2017-02-19T10:43:13.028Z,59.61
2017-02-19T10:44:12.765Z,60.32
2017-02-19T10:45:14.378Z,60.48
2017-02-19T10:46:13.808Z,60.62
2017-02-19T10:47:15.471Z,60.62
2017-02-19T10:48:12.950Z,61.24
2017-02-19T10:49:13.322Z,61.20
2017-02-19T10:50:13.040Z,61.22
2017-02-19T10:51:12.796Z,61.05
2017-02-19T10:52:13.494Z,61.06
2017-02-19T10:53:14.469Z,61.03
2017-02-19T10:54:12.942Z,61.03
2017-02-19T10:55:12.932Z,61.05
2017-02-19T10:56:12.733Z,60.98
2017-02-19T10:57:13.977Z,61.07
2017-02-19T10:58:12.999Z,61.05
2017-02-19T10:59:11.908Z,61.04
2017-02-19T11:00:11.289Z,61.34
2017-02-19T11:01:12.938Z,60.74
2017-02-19T11:02:14.194Z,61.54
2017-02-19T11:03:13.293Z,61.33
2017-02-19T11:04:12.849Z,61.25
2017-02-19T11:05:13.327Z,61.63
2017-02-19T11:06:13.878Z,61.35
2017-02-19T11:07:14.466Z,61.28
2017-02-19T11:08:15.108Z,61.38
2017-02-19T11:09:13.092Z,61.41
2017-02-19T11:10:12.679Z,61.46
2017-02-19T11:11:13.313Z,61.50
2017-02-19T11:12:13.389Z,61.48
2017-02-19T11:13:14.158Z,61.38
2017-02-19T11:14:13.895Z,61.31
2017-02-19T11:15:13.431Z,61.48
2017-02-19T11:16:13.062Z,61.50
2017-02-19T11:17:13.322Z,61.45
2017-02-19T11:18:12.323Z,61.38
2017-02-19T11:19:12.316Z,61.35
2017-02-19T11:20:13.237Z,61.32
2017-02-19T11:21:14.766Z,61.33
2017-02-19T11:22:13.425Z,61.32
2017-02-19T11:23:14.016Z,61.39
2017-02-19T11:24:12.929Z,61.36
2017-02-19T11:25:16.102Z,61.50
2017-02-19T11:26:13.690Z,61.33
2017-02-19T11:27:13.387Z,61.34
2017-02-19T11:28:14.032Z,61.31
2017-02-19T11:29:12.704Z,61.33
2017-02-19T11:30:13.355Z,61.33
2017-02-19T11:31:12.855Z,61.31
2017-02-19T11:32:14.236Z,61.17
2017-02-19T11:33:13.580Z,61.30
2017-02-19T11:34:14.083Z,61.21
2017-02-19T11:35:13.883Z,61.29
2017-02-19T11:36:13.939Z,61.16
2017-02-19T11:37:13.534Z,58.27
2017-02-19T11:38:13.713Z,58.52
2017-02-19T11:39:13.649Z,57.87
2017-02-19T11:40:13.258Z,58.66
2017-02-19T11:41:12.785Z,59.60
2017-02-19T11:42:14.757Z,59.93
2017-02-19T11:43:11.464Z,59.91
2017-02-19T11:44:14.154Z,60.09
2017-02-19T11:45:13.168Z,60.27
2017-02-19T11:46:12.784Z,60.23
2017-02-19T11:47:14.091Z,60.24
2017-02-19T11:48:12.946Z,60.20
2017-02-19T11:49:12.588Z,60.24
2017-02-19T11:50:13.325Z,60.33
2017-02-19T11:51:14.960Z,60.48
2017-02-19T11:52:10.405Z,60.56
2017-02-19T11:53:12.878Z,60.42
2017-02-19T11:54:13.437Z,60.39
2017-02-19T11:55:15.887Z,60.45
2017-02-19T11:56:12.969Z,60.48
2017-02-19T11:57:14.011Z,60.44
2017-02-19T11:58:12.598Z,60.46
2017-02-19T11:59:15.819Z,60.36
2017-02-19T12:00:15.429Z,60.39
2017-02-19T12:01:15.606Z,60.23
2017-02-19T12:02:14.225Z,59.63
2017-02-19T12:03:16.209Z,60.36
2017-02-19T12:04:13.765Z,60.17
2017-02-19T12:05:14.391Z,59.99
2017-02-19T12:06:13.030Z,60.00
2017-02-19T12:07:12.321Z,59.90
2017-02-19T12:08:12.847Z,59.22
2017-02-19T12:09:12.940Z,58.91
2017-02-19T12:10:15.666Z,58.87
2017-02-19T12:11:12.737Z,59.15
2017-02-19T12:12:13.405Z,60.20
2017-02-19T12:13:10.549Z,60.43
2017-02-19T12:14:14.514Z,60.57
2017-02-19T12:15:12.999Z,60.86
2017-02-19T12:16:13.051Z,60.85
2017-02-19T12:17:12.996Z,60.75
2017-02-19T12:18:13.724Z,60.71
2017-02-19T12:19:13.400Z,60.62
2017-02-19T12:20:12.910Z,60.60
2017-02-19T12:21:15.446Z,60.58
2017-02-19T12:22:14.147Z,60.51
2017-02-19T12:23:12.752Z,60.52
2017-02-19T12:24:14.348Z,60.58
2017-02-19T12:25:12.967Z,60.59
2017-02-19T12:26:12.608Z,60.60
2017-02-19T12:27:12.743Z,60.79
2017-02-19T12:28:12.732Z,60.69
2017-02-19T12:29:13.663Z,60.73
2017-02-19T12:30:13.106Z,60.93
2017-02-19T12:31:13.190Z,60.92
2017-02-19T12:32:13.900Z,60.93
2017-02-19T12:33:14.724Z,60.99
2017-02-19T12:34:13.449Z,60.96
2017-02-19T12:35:13.626Z,61.00
2017-02-19T12:36:11.763Z,61.07
2017-02-19T12:37:13.341Z,61.10
2017-02-19T12:38:13.015Z,61.16
2017-02-19T12:39:12.175Z,61.41
2017-02-19T12:40:12.805Z,61.33
2017-02-19T12:41:19.640Z,61.22
2017-02-19T12:42:13.322Z,61.16
2017-02-19T12:43:13.070Z,61.13
2017-02-19T12:44:12.785Z,61.15
2017-02-19T12:45:14.427Z,61.03
2017-02-19T12:46:13.154Z,61.04
2017-02-19T12:47:12.733Z,61.04
2017-02-19T12:48:13.322Z,61.09
2017-02-19T12:49:13.398Z,61.06
2017-02-19T12:50:13.226Z,61.08
2017-02-19T12:51:12.808Z,61.08
2017-02-19T12:52:13.360Z,61.09